sensor_id;sensor_type;location;lat;lon;timestamp;temperature;humidity
37242;DHT22;23135;51.078;12.108;2023-04-15T00:02:21;6.40;99.90
37242;DHT22;23135;51.078;12.108;2023-04-15T00:04:47;6.40;99.90
37242;DHT22;23135;51.078;12.108;2023-04-15T00:07:13;6.40;99.90
37242;DHT22;23135;51.078;12.108;2023-04-15T00:09:40;6.40;99.90
37242;DHT22;23135;51.078;12.108;2023-04-15T00:12:05;6.40;99.90
37242;DHT22;23135;51.078;12.108;2023-04-15T00:14:33;6.30;99.90
37242;DHT22;23135;51.078;12.108;2023-04-15T00:17:00;6.40;99.90
37242;DHT22;23135;51.078;12.108;2023-04-15T00:19:25;6.40;99.90
37242;DHT22;23135;51.078;12.108;2023-04-15T00:24:57;6.30;99.90
37242;DHT22;23135;51.078;12.108;2023-04-15T00:28:13;6.30;99.90
37242;DHT22;23135;51.078;12.108;2023-04-15T00:31:04;6.30;99.90
37242;DHT22;23135;51.078;12.108;2023-04-15T00:33:49;6.40;99.90
37242;DHT22;23135;51.078;12.108;2023-04-15T00:36:15;6.30;99.90
37242;DHT22;23135;51.078;12.108;2023-04-15T00:38:40;6.30;99.90
37242;DHT22;23135;51.078;12.108;2023-04-15T00:41:06;6.30;99.90
37242;DHT22;23135;51.078;12.108;2023-04-15T00:43:32;6.40;99.90
37242;DHT22;23135;51.078;12.108;2023-04-15T00:45:58;6.40;99.90
37242;DHT22;23135;51.078;12.108;2023-04-15T00:48:23;6.30;99.90
37242;DHT22;23135;51.078;12.108;2023-04-15T00:50:50;6.40;99.90
37242;DHT22;23135;51.078;12.108;2023-04-15T00:53:16;6.40;99.90
37242;DHT22;23135;51.078;12.108;2023-04-15T00:55:41;6.40;99.90
37242;DHT22;23135;51.078;12.108;2023-04-15T00:58:07;6.30;99.90
37242;DHT22;23135;51.078;12.108;2023-04-15T01:00:33;6.30;99.90
37242;DHT22;23135;51.078;12.108;2023-04-15T01:02:58;6.30;99.90
37242;DHT22;23135;51.078;12.108;2023-04-15T01:05:24;6.30;99.90
37242;DHT22;23135;51.078;12.108;2023-04-15T01:07:51;6.20;99.90
37242;DHT22;23135;51.078;12.108;2023-04-15T01:10:17;6.20;99.90
37242;DHT22;23135;51.078;12.108;2023-04-15T01:12:43;6.20;99.90
37242;DHT22;23135;51.078;12.108;2023-04-15T01:15:09;6.20;99.90
37242;DHT22;23135;51.078;12.108;2023-04-15T01:17:35;6.10;99.90
37242;DHT22;23135;51.078;12.108;2023-04-15T01:20:01;6.10;99.90
37242;DHT22;23135;51.078;12.108;2023-04-15T01:22:27;6.20;99.90
37242;DHT22;23135;51.078;12.108;2023-04-15T01:28:20;6.10;99.90
37242;DHT22;23135;51.078;12.108;2023-04-15T01:31:05;6.10;99.90
37242;DHT22;23135;51.078;12.108;2023-04-15T01:34:01;6.10;99.90
37242;DHT22;23135;51.078;12.108;2023-04-15T01:36:30;6.10;99.90
37242;DHT22;23135;51.078;12.108;2023-04-15T01:39:37;6.10;99.90
37242;DHT22;23135;51.078;12.108;2023-04-15T01:42:37;6.10;99.90
37242;DHT22;23135;51.078;12.108;2023-04-15T01:45:05;6.10;99.90
37242;DHT22;23135;51.078;12.108;2023-04-15T01:47:37;6.10;99.90
37242;DHT22;23135;51.078;12.108;2023-04-15T01:52:54;6.10;99.90
37242;DHT22;23135;51.078;12.108;2023-04-15T01:55:29;6.10;99.90
37242;DHT22;23135;51.078;12.108;2023-04-15T01:58:02;6.10;99.90
37242;DHT22;23135;51.078;12.108;2023-04-15T02:00:31;6.00;99.90
37242;DHT22;23135;51.078;12.108;2023-04-15T02:02:57;6.00;99.90
37242;DHT22;23135;51.078;12.108;2023-04-15T02:05:23;6.00;99.90
37242;DHT22;23135;51.078;12.108;2023-04-15T02:07:50;6.00;99.90
37242;DHT22;23135;51.078;12.108;2023-04-15T02:10:15;6.00;99.90
37242;DHT22;23135;51.078;12.108;2023-04-15T02:12:41;6.10;99.90
37242;DHT22;23135;51.078;12.108;2023-04-15T02:15:07;6.00;99.90
37242;DHT22;23135;51.078;12.108;2023-04-15T02:17:35;6.10;99.90
37242;DHT22;23135;51.078;12.108;2023-04-15T02:20:01;6.10;99.90
37242;DHT22;23135;51.078;12.108;2023-04-15T02:22:27;6.00;99.90
37242;DHT22;23135;51.078;12.108;2023-04-15T02:24:53;6.00;99.90
37242;DHT22;23135;51.078;12.108;2023-04-15T02:27:19;6.00;99.90
37242;DHT22;23135;51.078;12.108;2023-04-15T02:29:45;6.10;99.90
37242;DHT22;23135;51.078;12.108;2023-04-15T02:32:13;6.00;99.90
37242;DHT22;23135;51.078;12.108;2023-04-15T02:34:39;6.00;99.90
37242;DHT22;23135;51.078;12.108;2023-04-15T02:37:11;6.00;99.90
37242;DHT22;23135;51.078;12.108;2023-04-15T02:39:36;6.00;99.90
37242;DHT22;23135;51.078;12.108;2023-04-15T02:42:02;6.00;99.90
37242;DHT22;23135;51.078;12.108;2023-04-15T02:44:29;5.90;99.90
37242;DHT22;23135;51.078;12.108;2023-04-15T02:46:56;5.90;99.90
37242;DHT22;23135;51.078;12.108;2023-04-15T02:49:23;5.90;99.90
37242;DHT22;23135;51.078;12.108;2023-04-15T02:51:49;5.90;99.90
37242;DHT22;23135;51.078;12.108;2023-04-15T02:54:19;5.90;99.90
37242;DHT22;23135;51.078;12.108;2023-04-15T02:56:47;5.90;99.90
37242;DHT22;23135;51.078;12.108;2023-04-15T02:59:12;5.90;99.90
37242;DHT22;23135;51.078;12.108;2023-04-15T03:01:38;5.90;99.90
37242;DHT22;23135;51.078;12.108;2023-04-15T03:04:04;5.90;99.90
37242;DHT22;23135;51.078;12.108;2023-04-15T03:06:30;6.00;99.90
37242;DHT22;23135;51.078;12.108;2023-04-15T03:08:55;5.90;99.90
37242;DHT22;23135;51.078;12.108;2023-04-15T03:11:21;6.00;99.90
37242;DHT22;23135;51.078;12.108;2023-04-15T03:13:47;6.00;99.90
37242;DHT22;23135;51.078;12.108;2023-04-15T03:16:12;6.00;99.90
37242;DHT22;23135;51.078;12.108;2023-04-15T03:18:38;6.00;99.90
37242;DHT22;23135;51.078;12.108;2023-04-15T03:21:04;5.90;99.90
37242;DHT22;23135;51.078;12.108;2023-04-15T03:23:32;6.00;99.90
37242;DHT22;23135;51.078;12.108;2023-04-15T03:26:01;5.90;99.90
37242;DHT22;23135;51.078;12.108;2023-04-15T03:28:26;5.90;99.90
37242;DHT22;23135;51.078;12.108;2023-04-15T03:30:53;6.00;99.90
37242;DHT22;23135;51.078;12.108;2023-04-15T03:33:19;6.00;99.90
37242;DHT22;23135;51.078;12.108;2023-04-15T03:35:45;5.90;99.90
37242;DHT22;23135;51.078;12.108;2023-04-15T03:38:10;6.00;99.90
37242;DHT22;23135;51.078;12.108;2023-04-15T03:40:37;6.00;99.90
37242;DHT22;23135;51.078;12.108;2023-04-15T03:43:02;6.00;99.90
37242;DHT22;23135;51.078;12.108;2023-04-15T03:45:29;6.00;99.90
37242;DHT22;23135;51.078;12.108;2023-04-15T03:47:55;6.00;99.90
37242;DHT22;23135;51.078;12.108;2023-04-15T03:50:21;6.00;99.90
37242;DHT22;23135;51.078;12.108;2023-04-15T03:52:46;6.00;99.90
37242;DHT22;23135;51.078;12.108;2023-04-15T03:55:12;6.00;99.90
37242;DHT22;23135;51.078;12.108;2023-04-15T03:57:37;6.00;99.90
37242;DHT22;23135;51.078;12.108;2023-04-15T04:00:05;6.00;99.90
37242;DHT22;23135;51.078;12.108;2023-04-15T04:02:31;6.00;99.90
37242;DHT22;23135;51.078;12.108;2023-04-15T04:04:56;6.00;99.90
37242;DHT22;23135;51.078;12.108;2023-04-15T04:07:23;6.00;99.90
37242;DHT22;23135;51.078;12.108;2023-04-15T04:09:49;6.10;99.90
37242;DHT22;23135;51.078;12.108;2023-04-15T04:12:14;6.00;99.90
37242;DHT22;23135;51.078;12.108;2023-04-15T04:14:40;6.00;99.90
37242;DHT22;23135;51.078;12.108;2023-04-15T04:17:06;6.00;99.90
37242;DHT22;23135;51.078;12.108;2023-04-15T04:19:31;6.00;99.90
37242;DHT22;23135;51.078;12.108;2023-04-15T04:21:57;6.00;99.90
37242;DHT22;23135;51.078;12.108;2023-04-15T04:24:23;6.00;99.90
37242;DHT22;23135;51.078;12.108;2023-04-15T04:26:48;6.00;99.90
37242;DHT22;23135;51.078;12.108;2023-04-15T04:29:14;6.00;99.90
37242;DHT22;23135;51.078;12.108;2023-04-15T04:31:39;6.00;99.90
37242;DHT22;23135;51.078;12.108;2023-04-15T04:34:05;6.00;99.90
37242;DHT22;23135;51.078;12.108;2023-04-15T04:36:31;6.00;99.90
37242;DHT22;23135;51.078;12.108;2023-04-15T04:38:56;6.00;99.90
37242;DHT22;23135;51.078;12.108;2023-04-15T04:41:22;6.00;99.90
37242;DHT22;23135;51.078;12.108;2023-04-15T04:43:48;6.00;99.90
37242;DHT22;23135;51.078;12.108;2023-04-15T04:46:13;6.00;99.90
37242;DHT22;23135;51.078;12.108;2023-04-15T04:48:39;6.00;99.90
37242;DHT22;23135;51.078;12.108;2023-04-15T04:51:36;6.00;99.90
37242;DHT22;23135;51.078;12.108;2023-04-15T04:54:52;6.00;99.90
37242;DHT22;23135;51.078;12.108;2023-04-15T04:57:52;6.00;99.90
37242;DHT22;23135;51.078;12.108;2023-04-15T05:04:32;6.00;99.90
37242;DHT22;23135;51.078;12.108;2023-04-15T05:11:29;6.00;99.90
37242;DHT22;23135;51.078;12.108;2023-04-15T05:14:47;6.00;99.90
37242;DHT22;23135;51.078;12.108;2023-04-15T05:31:20;6.00;99.90
37242;DHT22;23135;51.078;12.108;2023-04-15T05:34:59;6.00;99.90
37242;DHT22;23135;51.078;12.108;2023-04-15T05:38:04;6.10;99.90
37242;DHT22;23135;51.078;12.108;2023-04-15T05:41:13;6.10;99.90
37242;DHT22;23135;51.078;12.108;2023-04-15T05:47:40;6.10;99.90
37242;DHT22;23135;51.078;12.108;2023-04-15T05:51:06;6.10;99.90
37242;DHT22;23135;51.078;12.108;2023-04-15T05:53:55;6.10;99.90
37242;DHT22;23135;51.078;12.108;2023-04-15T05:57:12;6.10;99.90
37242;DHT22;23135;51.078;12.108;2023-04-15T05:59:40;6.10;99.90
37242;DHT22;23135;51.078;12.108;2023-04-15T06:02:22;6.10;99.90
37242;DHT22;23135;51.078;12.108;2023-04-15T06:08:45;6.20;99.90
37242;DHT22;23135;51.078;12.108;2023-04-15T06:11:22;6.20;99.90
37242;DHT22;23135;51.078;12.108;2023-04-15T06:13:54;6.20;99.90
37242;DHT22;23135;51.078;12.108;2023-04-15T06:16:35;6.20;99.90
37242;DHT22;23135;51.078;12.108;2023-04-15T06:19:22;6.20;99.90
37242;DHT22;23135;51.078;12.108;2023-04-15T06:22:25;6.20;99.90
37242;DHT22;23135;51.078;12.108;2023-04-15T06:24:50;6.30;99.90
37242;DHT22;23135;51.078;12.108;2023-04-15T06:30:20;6.20;99.90
37242;DHT22;23135;51.078;12.108;2023-04-15T06:32:56;6.20;99.90
37242;DHT22;23135;51.078;12.108;2023-04-15T06:35:21;6.20;99.90
37242;DHT22;23135;51.078;12.108;2023-04-15T06:37:47;6.20;99.90
37242;DHT22;23135;51.078;12.108;2023-04-15T06:40:13;6.20;99.90
37242;DHT22;23135;51.078;12.108;2023-04-15T06:42:38;6.20;99.90
37242;DHT22;23135;51.078;12.108;2023-04-15T06:45:04;6.30;99.90
37242;DHT22;23135;51.078;12.108;2023-04-15T06:47:31;6.30;99.90
37242;DHT22;23135;51.078;12.108;2023-04-15T06:49:56;6.30;99.90
37242;DHT22;23135;51.078;12.108;2023-04-15T06:52:22;6.30;99.90
37242;DHT22;23135;51.078;12.108;2023-04-15T06:54:47;6.30;99.90
37242;DHT22;23135;51.078;12.108;2023-04-15T06:57:13;6.40;99.90
37242;DHT22;23135;51.078;12.108;2023-04-15T06:59:40;6.30;99.90
37242;DHT22;23135;51.078;12.108;2023-04-15T07:02:08;6.30;99.90
37242;DHT22;23135;51.078;12.108;2023-04-15T07:04:36;6.30;99.90
37242;DHT22;23135;51.078;12.108;2023-04-15T07:07:02;6.30;99.90
37242;DHT22;23135;51.078;12.108;2023-04-15T07:09:27;6.30;99.90
37242;DHT22;23135;51.078;12.108;2023-04-15T07:11:54;6.30;99.90
37242;DHT22;23135;51.078;12.108;2023-04-15T07:14:20;6.30;99.90
37242;DHT22;23135;51.078;12.108;2023-04-15T07:16:46;6.40;99.90
37242;DHT22;23135;51.078;12.108;2023-04-15T07:19:11;6.40;99.90
37242;DHT22;23135;51.078;12.108;2023-04-15T07:21:37;6.40;99.90
37242;DHT22;23135;51.078;12.108;2023-04-15T07:24:06;6.40;99.90
37242;DHT22;23135;51.078;12.108;2023-04-15T07:26:31;6.40;99.90
37242;DHT22;23135;51.078;12.108;2023-04-15T07:28:57;6.40;99.90
37242;DHT22;23135;51.078;12.108;2023-04-15T07:31:24;6.40;99.90
37242;DHT22;23135;51.078;12.108;2023-04-15T07:33:50;6.40;99.90
37242;DHT22;23135;51.078;12.108;2023-04-15T07:36:16;6.40;99.90
37242;DHT22;23135;51.078;12.108;2023-04-15T07:38:41;6.50;99.90
37242;DHT22;23135;51.078;12.108;2023-04-15T07:41:07;6.50;99.90
37242;DHT22;23135;51.078;12.108;2023-04-15T07:43:33;6.50;99.90
37242;DHT22;23135;51.078;12.108;2023-04-15T07:45:58;6.50;99.90
37242;DHT22;23135;51.078;12.108;2023-04-15T07:48:24;6.50;99.90
37242;DHT22;23135;51.078;12.108;2023-04-15T07:50:50;6.60;99.90
37242;DHT22;23135;51.078;12.108;2023-04-15T07:53:15;6.60;99.90
37242;DHT22;23135;51.078;12.108;2023-04-15T07:55:41;6.60;99.90
37242;DHT22;23135;51.078;12.108;2023-04-15T07:58:06;6.60;99.90
37242;DHT22;23135;51.078;12.108;2023-04-15T08:00:32;6.60;99.90
37242;DHT22;23135;51.078;12.108;2023-04-15T08:02:57;6.60;99.90
37242;DHT22;23135;51.078;12.108;2023-04-15T08:05:24;6.70;99.90
37242;DHT22;23135;51.078;12.108;2023-04-15T08:07:50;6.60;99.90
37242;DHT22;23135;51.078;12.108;2023-04-15T08:10:16;6.60;99.90
37242;DHT22;23135;51.078;12.108;2023-04-15T08:12:41;6.60;99.90
37242;DHT22;23135;51.078;12.108;2023-04-15T08:15:07;6.60;99.90
37242;DHT22;23135;51.078;12.108;2023-04-15T08:17:33;6.60;99.90
37242;DHT22;23135;51.078;12.108;2023-04-15T08:19:59;6.60;99.90
37242;DHT22;23135;51.078;12.108;2023-04-15T08:22:24;6.60;99.90
37242;DHT22;23135;51.078;12.108;2023-04-15T08:24:50;6.60;99.90
37242;DHT22;23135;51.078;12.108;2023-04-15T08:27:16;6.70;99.90
37242;DHT22;23135;51.078;12.108;2023-04-15T08:29:41;6.70;99.90
37242;DHT22;23135;51.078;12.108;2023-04-15T08:32:07;6.70;99.90
37242;DHT22;23135;51.078;12.108;2023-04-15T08:34:34;6.70;99.90
37242;DHT22;23135;51.078;12.108;2023-04-15T08:36:59;6.70;99.90
37242;DHT22;23135;51.078;12.108;2023-04-15T08:39:25;6.70;99.90
37242;DHT22;23135;51.078;12.108;2023-04-15T08:41:59;6.70;99.90
37242;DHT22;23135;51.078;12.108;2023-04-15T08:44:28;6.80;99.90
37242;DHT22;23135;51.078;12.108;2023-04-15T08:46:56;6.80;99.90
37242;DHT22;23135;51.078;12.108;2023-04-15T08:49:25;6.90;99.90
37242;DHT22;23135;51.078;12.108;2023-04-15T08:51:51;6.90;99.90
37242;DHT22;23135;51.078;12.108;2023-04-15T08:54:18;6.90;99.90
37242;DHT22;23135;51.078;12.108;2023-04-15T08:56:44;6.90;99.90
37242;DHT22;23135;51.078;12.108;2023-04-15T08:59:09;6.90;99.90
37242;DHT22;23135;51.078;12.108;2023-04-15T09:01:36;6.90;99.90
37242;DHT22;23135;51.078;12.108;2023-04-15T09:04:03;7.00;99.90
37242;DHT22;23135;51.078;12.108;2023-04-15T09:06:32;7.00;99.90
37242;DHT22;23135;51.078;12.108;2023-04-15T09:08:58;7.00;99.90
37242;DHT22;23135;51.078;12.108;2023-04-15T09:11:24;7.00;99.90
37242;DHT22;23135;51.078;12.108;2023-04-15T09:13:50;7.10;99.90
37242;DHT22;23135;51.078;12.108;2023-04-15T09:16:15;7.10;99.90
37242;DHT22;23135;51.078;12.108;2023-04-15T09:18:41;7.10;99.90
37242;DHT22;23135;51.078;12.108;2023-04-15T09:21:12;7.20;99.90
37242;DHT22;23135;51.078;12.108;2023-04-15T09:23:41;7.20;99.90
37242;DHT22;23135;51.078;12.108;2023-04-15T09:26:18;7.30;99.90
37242;DHT22;23135;51.078;12.108;2023-04-15T09:28:43;7.30;99.90
37242;DHT22;23135;51.078;12.108;2023-04-15T09:31:09;7.30;99.90
37242;DHT22;23135;51.078;12.108;2023-04-15T09:33:35;7.20;99.90
37242;DHT22;23135;51.078;12.108;2023-04-15T09:36:17;7.30;99.90
37242;DHT22;23135;51.078;12.108;2023-04-15T09:39:03;7.30;99.90
37242;DHT22;23135;51.078;12.108;2023-04-15T09:41:29;7.40;99.90
37242;DHT22;23135;51.078;12.108;2023-04-15T09:43:55;7.30;99.90
37242;DHT22;23135;51.078;12.108;2023-04-15T09:46:40;7.40;99.90
37242;DHT22;23135;51.078;12.108;2023-04-15T09:49:07;7.40;99.90
37242;DHT22;23135;51.078;12.108;2023-04-15T09:51:36;7.40;99.90
37242;DHT22;23135;51.078;12.108;2023-04-15T09:54:02;7.40;99.90
37242;DHT22;23135;51.078;12.108;2023-04-15T09:56:37;7.40;99.90
37242;DHT22;23135;51.078;12.108;2023-04-15T09:59:06;7.40;99.90
37242;DHT22;23135;51.078;12.108;2023-04-15T10:01:32;7.40;99.90
37242;DHT22;23135;51.078;12.108;2023-04-15T10:03:58;7.50;99.90
37242;DHT22;23135;51.078;12.108;2023-04-15T10:06:27;7.50;99.90
37242;DHT22;23135;51.078;12.108;2023-04-15T10:08:53;7.50;99.90
37242;DHT22;23135;51.078;12.108;2023-04-15T10:11:20;7.50;99.90
37242;DHT22;23135;51.078;12.108;2023-04-15T10:13:49;7.60;99.90
37242;DHT22;23135;51.078;12.108;2023-04-15T10:16:15;7.60;99.90
37242;DHT22;23135;51.078;12.108;2023-04-15T10:18:46;7.60;99.90
37242;DHT22;23135;51.078;12.108;2023-04-15T10:21:13;7.60;99.90
37242;DHT22;23135;51.078;12.108;2023-04-15T10:23:41;7.60;99.90
37242;DHT22;23135;51.078;12.108;2023-04-15T10:26:07;7.60;99.90
37242;DHT22;23135;51.078;12.108;2023-04-15T10:28:34;7.60;99.90
37242;DHT22;23135;51.078;12.108;2023-04-15T10:31:00;7.60;99.90
37242;DHT22;23135;51.078;12.108;2023-04-15T10:33:26;7.60;99.90
37242;DHT22;23135;51.078;12.108;2023-04-15T10:35:55;7.60;99.90
37242;DHT22;23135;51.078;12.108;2023-04-15T10:38:39;7.70;99.90
37242;DHT22;23135;51.078;12.108;2023-04-15T10:41:23;7.60;99.90
37242;DHT22;23135;51.078;12.108;2023-04-15T10:43:53;7.60;99.90
37242;DHT22;23135;51.078;12.108;2023-04-15T10:46:22;7.70;99.90
37242;DHT22;23135;51.078;12.108;2023-04-15T10:48:51;7.70;99.90
37242;DHT22;23135;51.078;12.108;2023-04-15T10:51:30;7.70;99.90
37242;DHT22;23135;51.078;12.108;2023-04-15T10:53:58;7.70;99.90
37242;DHT22;23135;51.078;12.108;2023-04-15T10:56:24;7.70;99.90
37242;DHT22;23135;51.078;12.108;2023-04-15T10:58:50;7.80;99.90
37242;DHT22;23135;51.078;12.108;2023-04-15T11:01:17;7.80;99.90
37242;DHT22;23135;51.078;12.108;2023-04-15T11:03:43;7.80;99.90
37242;DHT22;23135;51.078;12.108;2023-04-15T11:06:10;7.80;99.90
37242;DHT22;23135;51.078;12.108;2023-04-15T11:08:56;7.80;99.90
37242;DHT22;23135;51.078;12.108;2023-04-15T11:11:29;7.80;99.90
37242;DHT22;23135;51.078;12.108;2023-04-15T11:14:14;7.90;99.90
37242;DHT22;23135;51.078;12.108;2023-04-15T11:16:42;7.90;99.90
37242;DHT22;23135;51.078;12.108;2023-04-15T11:19:09;7.90;99.90
37242;DHT22;23135;51.078;12.108;2023-04-15T11:21:35;7.90;99.90
37242;DHT22;23135;51.078;12.108;2023-04-15T11:24:00;7.90;99.90
37242;DHT22;23135;51.078;12.108;2023-04-15T11:26:26;7.90;99.90
37242;DHT22;23135;51.078;12.108;2023-04-15T11:28:52;7.90;99.90
37242;DHT22;23135;51.078;12.108;2023-04-15T11:31:18;7.90;99.90
37242;DHT22;23135;51.078;12.108;2023-04-15T11:33:58;8.00;99.90
37242;DHT22;23135;51.078;12.108;2023-04-15T11:36:30;8.00;99.90
37242;DHT22;23135;51.078;12.108;2023-04-15T11:38:57;8.00;99.90
37242;DHT22;23135;51.078;12.108;2023-04-15T11:41:23;8.00;99.90
37242;DHT22;23135;51.078;12.108;2023-04-15T11:43:50;8.10;99.90
37242;DHT22;23135;51.078;12.108;2023-04-15T11:46:16;8.10;99.90
37242;DHT22;23135;51.078;12.108;2023-04-15T11:48:44;8.20;99.90
37242;DHT22;23135;51.078;12.108;2023-04-15T11:51:10;8.20;99.90
37242;DHT22;23135;51.078;12.108;2023-04-15T11:53:45;8.20;99.90
37242;DHT22;23135;51.078;12.108;2023-04-15T11:56:23;8.20;99.90
37242;DHT22;23135;51.078;12.108;2023-04-15T11:58:55;8.30;99.90
37242;DHT22;23135;51.078;12.108;2023-04-15T12:01:33;8.30;99.90
37242;DHT22;23135;51.078;12.108;2023-04-15T12:03:59;8.30;99.90
37242;DHT22;23135;51.078;12.108;2023-04-15T12:06:31;8.40;99.90
37242;DHT22;23135;51.078;12.108;2023-04-15T12:09:12;8.50;99.90
37242;DHT22;23135;51.078;12.108;2023-04-15T12:11:49;8.50;99.90
37242;DHT22;23135;51.078;12.108;2023-04-15T12:14:28;8.40;99.90
37242;DHT22;23135;51.078;12.108;2023-04-15T12:17:00;8.50;99.90
37242;DHT22;23135;51.078;12.108;2023-04-15T12:19:27;8.50;99.90
37242;DHT22;23135;51.078;12.108;2023-04-15T12:22:04;8.60;99.90
37242;DHT22;23135;51.078;12.108;2023-04-15T12:24:31;8.60;99.90
37242;DHT22;23135;51.078;12.108;2023-04-15T12:27:01;8.60;99.90
37242;DHT22;23135;51.078;12.108;2023-04-15T12:29:28;8.70;99.90
37242;DHT22;23135;51.078;12.108;2023-04-15T12:32:03;8.70;99.90
37242;DHT22;23135;51.078;12.108;2023-04-15T12:34:35;8.80;99.90
37242;DHT22;23135;51.078;12.108;2023-04-15T12:37:03;8.80;99.90
37242;DHT22;23135;51.078;12.108;2023-04-15T12:39:33;8.80;99.90
37242;DHT22;23135;51.078;12.108;2023-04-15T12:41:59;8.80;99.90
37242;DHT22;23135;51.078;12.108;2023-04-15T12:44:26;8.90;99.90
37242;DHT22;23135;51.078;12.108;2023-04-15T12:46:52;8.90;99.90
37242;DHT22;23135;51.078;12.108;2023-04-15T12:49:18;8.90;99.90
37242;DHT22;23135;51.078;12.108;2023-04-15T12:51:46;8.90;99.90
37242;DHT22;23135;51.078;12.108;2023-04-15T12:54:12;8.90;99.90
37242;DHT22;23135;51.078;12.108;2023-04-15T12:56:38;8.90;99.90
37242;DHT22;23135;51.078;12.108;2023-04-15T12:59:04;8.90;99.90
37242;DHT22;23135;51.078;12.108;2023-04-15T13:01:29;9.00;99.90
37242;DHT22;23135;51.078;12.108;2023-04-15T13:03:55;9.00;99.90
37242;DHT22;23135;51.078;12.108;2023-04-15T13:06:20;9.00;99.90
37242;DHT22;23135;51.078;12.108;2023-04-15T13:08:47;9.10;99.90
37242;DHT22;23135;51.078;12.108;2023-04-15T13:11:12;9.10;99.90
37242;DHT22;23135;51.078;12.108;2023-04-15T13:13:38;9.20;99.90
37242;DHT22;23135;51.078;12.108;2023-04-15T13:16:04;9.20;99.90
37242;DHT22;23135;51.078;12.108;2023-04-15T13:18:29;9.20;99.90
37242;DHT22;23135;51.078;12.108;2023-04-15T13:20:55;9.30;99.90
37242;DHT22;23135;51.078;12.108;2023-04-15T13:23:21;9.30;99.90
37242;DHT22;23135;51.078;12.108;2023-04-15T13:25:47;9.30;99.90
37242;DHT22;23135;51.078;12.108;2023-04-15T13:28:12;9.30;99.90
37242;DHT22;23135;51.078;12.108;2023-04-15T13:30:38;9.40;99.90
37242;DHT22;23135;51.078;12.108;2023-04-15T13:33:04;9.40;99.90
37242;DHT22;23135;51.078;12.108;2023-04-15T13:35:31;9.40;99.90
37242;DHT22;23135;51.078;12.108;2023-04-15T13:37:57;9.40;99.90
37242;DHT22;23135;51.078;12.108;2023-04-15T13:40:22;9.40;99.90
37242;DHT22;23135;51.078;12.108;2023-04-15T13:42:48;9.40;99.90
37242;DHT22;23135;51.078;12.108;2023-04-15T13:45:13;9.40;99.90
37242;DHT22;23135;51.078;12.108;2023-04-15T13:47:39;9.50;99.90
37242;DHT22;23135;51.078;12.108;2023-04-15T13:50:05;9.50;99.90
37242;DHT22;23135;51.078;12.108;2023-04-15T13:52:31;9.60;99.90
37242;DHT22;23135;51.078;12.108;2023-04-15T13:54:56;9.60;99.90
37242;DHT22;23135;51.078;12.108;2023-04-15T13:57:22;9.60;99.90
37242;DHT22;23135;51.078;12.108;2023-04-15T13:59:48;9.70;99.90
37242;DHT22;23135;51.078;12.108;2023-04-15T14:02:13;9.70;99.90
37242;DHT22;23135;51.078;12.108;2023-04-15T14:04:39;9.70;99.90
37242;DHT22;23135;51.078;12.108;2023-04-15T14:07:04;9.80;99.90
37242;DHT22;23135;51.078;12.108;2023-04-15T14:09:30;9.90;99.90
37242;DHT22;23135;51.078;12.108;2023-04-15T14:11:56;9.90;99.90
37242;DHT22;23135;51.078;12.108;2023-04-15T14:14:23;9.90;99.90
37242;DHT22;23135;51.078;12.108;2023-04-15T14:16:48;9.90;99.90
37242;DHT22;23135;51.078;12.108;2023-04-15T14:19:14;9.80;99.90
37242;DHT22;23135;51.078;12.108;2023-04-15T14:21:40;9.70;99.90
37242;DHT22;23135;51.078;12.108;2023-04-15T14:24:05;9.80;99.90
37242;DHT22;23135;51.078;12.108;2023-04-15T14:26:31;9.80;99.90
37242;DHT22;23135;51.078;12.108;2023-04-15T14:28:56;9.80;99.90
37242;DHT22;23135;51.078;12.108;2023-04-15T14:31:22;9.80;99.90
37242;DHT22;23135;51.078;12.108;2023-04-15T14:33:47;9.80;99.90
37242;DHT22;23135;51.078;12.108;2023-04-15T14:36:13;9.80;99.90
37242;DHT22;23135;51.078;12.108;2023-04-15T14:38:39;9.80;99.90
37242;DHT22;23135;51.078;12.108;2023-04-15T14:41:06;9.80;99.90
37242;DHT22;23135;51.078;12.108;2023-04-15T14:43:32;9.80;99.90
37242;DHT22;23135;51.078;12.108;2023-04-15T14:45:58;9.80;99.90
37242;DHT22;23135;51.078;12.108;2023-04-15T14:48:24;9.80;99.90
37242;DHT22;23135;51.078;12.108;2023-04-15T14:50:50;9.80;99.90
37242;DHT22;23135;51.078;12.108;2023-04-15T14:53:15;9.80;99.90
37242;DHT22;23135;51.078;12.108;2023-04-15T14:55:41;9.80;99.90
37242;DHT22;23135;51.078;12.108;2023-04-15T14:58:06;9.80;99.90
37242;DHT22;23135;51.078;12.108;2023-04-15T15:00:35;9.80;99.90
37242;DHT22;23135;51.078;12.108;2023-04-15T15:03:03;9.80;99.90
37242;DHT22;23135;51.078;12.108;2023-04-15T15:05:43;9.80;99.90
37242;DHT22;23135;51.078;12.108;2023-04-15T15:08:10;9.80;99.90
37242;DHT22;23135;51.078;12.108;2023-04-15T15:10:36;9.80;99.90
37242;DHT22;23135;51.078;12.108;2023-04-15T15:13:03;9.80;99.90
37242;DHT22;23135;51.078;12.108;2023-04-15T15:15:30;9.90;99.90
37242;DHT22;23135;51.078;12.108;2023-04-15T15:17:55;9.90;99.90
37242;DHT22;23135;51.078;12.108;2023-04-15T15:20:21;9.90;99.90
37242;DHT22;23135;51.078;12.108;2023-04-15T15:22:47;9.90;99.90
37242;DHT22;23135;51.078;12.108;2023-04-15T15:25:13;9.90;99.90
37242;DHT22;23135;51.078;12.108;2023-04-15T15:27:39;9.90;99.90
37242;DHT22;23135;51.078;12.108;2023-04-15T15:30:05;9.90;99.90
37242;DHT22;23135;51.078;12.108;2023-04-15T15:32:33;9.90;99.90
37242;DHT22;23135;51.078;12.108;2023-04-15T15:34:59;9.90;99.90
37242;DHT22;23135;51.078;12.108;2023-04-15T15:37:25;9.90;99.90
37242;DHT22;23135;51.078;12.108;2023-04-15T15:39:51;10.00;99.90
37242;DHT22;23135;51.078;12.108;2023-04-15T15:42:21;10.00;99.90
37242;DHT22;23135;51.078;12.108;2023-04-15T15:44:47;10.00;99.90
37242;DHT22;23135;51.078;12.108;2023-04-15T15:47:14;10.00;99.90
37242;DHT22;23135;51.078;12.108;2023-04-15T15:49:40;10.00;99.90
37242;DHT22;23135;51.078;12.108;2023-04-15T15:52:05;10.00;99.90
37242;DHT22;23135;51.078;12.108;2023-04-15T15:54:31;10.00;99.90
37242;DHT22;23135;51.078;12.108;2023-04-15T15:56:57;10.00;99.90
37242;DHT22;23135;51.078;12.108;2023-04-15T15:59:23;10.00;99.90
37242;DHT22;23135;51.078;12.108;2023-04-15T16:01:50;10.00;99.90
37242;DHT22;23135;51.078;12.108;2023-04-15T16:04:15;10.00;99.90
37242;DHT22;23135;51.078;12.108;2023-04-15T16:06:41;10.00;99.90
37242;DHT22;23135;51.078;12.108;2023-04-15T16:09:09;9.90;99.90
37242;DHT22;23135;51.078;12.108;2023-04-15T16:11:34;9.90;99.90
37242;DHT22;23135;51.078;12.108;2023-04-15T16:14:00;10.00;99.90
37242;DHT22;23135;51.078;12.108;2023-04-15T16:16:25;10.00;99.90
37242;DHT22;23135;51.078;12.108;2023-04-15T16:18:51;9.90;99.90
37242;DHT22;23135;51.078;12.108;2023-04-15T16:21:16;9.90;99.90
37242;DHT22;23135;51.078;12.108;2023-04-15T16:23:42;9.90;99.90
37242;DHT22;23135;51.078;12.108;2023-04-15T16:26:08;9.90;99.90